createdAt,value
2022-08-25T00:00:14.739Z,21.41
2022-08-25T00:02:41.580Z,21.43
2022-08-25T00:05:21.415Z,21.43
2022-08-25T00:07:47.992Z,21.41
2022-08-25T00:10:14.301Z,21.39
2022-08-25T00:12:40.605Z,21.05
2022-08-25T00:15:06.964Z,21.18
2022-08-25T00:17:33.263Z,21.27
2022-08-25T00:19:59.640Z,21.28
2022-08-25T00:22:25.946Z,21.27
2022-08-25T00:24:52.264Z,21.24
2022-08-25T00:27:18.557Z,21.23
2022-08-25T00:29:44.880Z,21.21
2022-08-25T00:32:11.180Z,21.17
2022-08-25T00:34:37.519Z,21.15
2022-08-25T00:37:03.823Z,21.13
2022-08-25T00:39:30.513Z,21.09
2022-08-25T00:41:57.514Z,21.04
2022-08-25T00:44:23.777Z,21.06
2022-08-25T00:46:50.075Z,21.06
2022-08-25T00:49:24.914Z,21.03
2022-08-25T00:51:51.814Z,21.01
2022-08-25T00:54:18.460Z,21.02
2022-08-25T00:56:45.248Z,20.99
2022-08-25T00:59:11.633Z,20.91
2022-08-25T01:01:38.098Z,20.85
2022-08-25T01:04:04.420Z,20.85
2022-08-25T01:06:30.781Z,20.83
2022-08-25T01:08:57.379Z,20.85
2022-08-25T01:11:23.684Z,20.84
2022-08-25T01:13:50.169Z,20.78
2022-08-25T01:16:16.627Z,20.78
2022-08-25T01:18:43.017Z,20.78
2022-08-25T01:21:09.320Z,20.79
2022-08-25T01:23:35.630Z,20.75
2022-08-25T01:26:01.940Z,20.72
2022-08-25T01:28:28.246Z,20.69
2022-08-25T01:30:54.648Z,20.69
2022-08-25T01:33:22.331Z,20.71
2022-08-25T01:35:48.636Z,20.68
2022-08-25T01:38:14.945Z,20.66
2022-08-25T01:40:41.272Z,20.68
2022-08-25T01:43:07.812Z,20.71
2022-08-25T01:45:34.412Z,20.69
2022-08-25T01:48:00.819Z,20.65
2022-08-25T01:50:27.187Z,20.67
2022-08-25T01:52:53.490Z,20.68
2022-08-25T01:55:19.798Z,20.69
2022-08-25T01:57:46.311Z,20.74
2022-08-25T02:00:13.933Z,20.74
2022-08-25T02:02:42.825Z,20.77
2022-08-25T02:05:10.357Z,20.75
2022-08-25T02:07:36.657Z,20.48
2022-08-25T02:10:04.375Z,20.66
2022-08-25T02:12:36.029Z,20.68
2022-08-25T02:15:02.336Z,20.64
2022-08-25T02:17:28.642Z,20.63
2022-08-25T02:19:56.891Z,20.64
2022-08-25T02:22:23.203Z,20.63
2022-08-25T02:24:49.500Z,20.64
2022-08-25T02:27:15.816Z,20.59
2022-08-25T02:29:42.114Z,20.55
2022-08-25T02:32:10.284Z,20.55
2022-08-25T02:34:37.127Z,20.57
2022-08-25T02:37:03.472Z,20.61
2022-08-25T02:39:29.804Z,20.56
2022-08-25T02:41:56.116Z,20.56
2022-08-25T02:44:22.411Z,20.57
2022-08-25T02:46:48.869Z,20.61
2022-08-25T02:49:15.168Z,20.54
2022-08-25T02:51:41.483Z,20.54
2022-08-25T02:54:07.825Z,20.51
2022-08-25T02:56:34.135Z,20.45
2022-08-25T02:59:00.699Z,20.43
2022-08-25T03:01:28.934Z,20.46
2022-08-25T03:03:55.462Z,20.45
2022-08-25T03:06:24.199Z,20.39
2022-08-25T03:08:50.591Z,20.33
2022-08-25T03:11:17.820Z,20.33
2022-08-25T03:13:44.169Z,20.38
2022-08-25T03:16:11.291Z,20.44
2022-08-25T03:18:38.699Z,20.44
2022-08-25T03:21:05.015Z,20.41
2022-08-25T03:23:31.319Z,20.47
2022-08-25T03:26:16.469Z,20.47
2022-08-25T03:28:42.795Z,20.48
2022-08-25T03:31:09.113Z,20.51
2022-08-25T03:33:35.420Z,20.52
2022-08-25T03:36:01.733Z,20.32
2022-08-25T03:38:28.024Z,20.42
2022-08-25T03:40:54.345Z,20.39
2022-08-25T03:43:20.646Z,20.38
2022-08-25T03:45:47.710Z,20.38
2022-08-25T03:48:14.265Z,20.08
2022-08-25T03:50:40.582Z,20.21
2022-08-25T03:53:07.463Z,20.31
2022-08-25T03:55:37.145Z,20.35
2022-08-25T03:58:03.550Z,20.40
2022-08-25T04:00:30.353Z,20.43
2022-08-25T04:02:56.655Z,20.45
2022-08-25T04:05:23.224Z,20.43
2022-08-25T04:07:53.105Z,20.43
2022-08-25T04:10:20.446Z,20.40
2022-08-25T04:12:49.257Z,20.33
2022-08-25T04:15:15.580Z,20.29
2022-08-25T04:17:41.904Z,20.32
2022-08-25T04:20:08.725Z,20.29
2022-08-25T04:22:36.886Z,20.33
2022-08-25T04:25:03.768Z,20.32
2022-08-25T04:27:30.067Z,20.35
2022-08-25T04:29:56.679Z,20.35
2022-08-25T04:32:22.981Z,20.34
2022-08-25T04:34:49.364Z,20.40
2022-08-25T04:37:15.667Z,20.45
2022-08-25T04:39:42.104Z,20.45
2022-08-25T04:42:08.400Z,20.48
2022-08-25T04:44:34.719Z,20.40
2022-08-25T04:47:01.046Z,20.40
2022-08-25T04:49:28.069Z,20.42
2022-08-25T04:51:54.345Z,20.47
2022-08-25T04:54:23.748Z,20.52
2022-08-25T04:56:50.076Z,20.62
2022-08-25T04:59:20.925Z,20.70
2022-08-25T05:01:47.294Z,20.78
2022-08-25T05:04:28.544Z,20.87
2022-08-25T05:06:55.353Z,20.95
2022-08-25T05:09:21.768Z,21.03
2022-08-25T05:11:48.209Z,21.09
2022-08-25T05:14:18.126Z,21.05
2022-08-25T05:16:45.008Z,21.18
2022-08-25T05:19:11.351Z,21.21
2022-08-25T05:21:37.795Z,21.34
2022-08-25T05:24:04.086Z,21.25
2022-08-25T05:26:30.749Z,21.32
2022-08-25T05:28:57.048Z,21.43
2022-08-25T05:31:23.441Z,21.36
2022-08-25T05:33:49.815Z,21.33
2022-08-25T05:36:16.132Z,21.36
2022-08-25T05:38:42.658Z,21.16
2022-08-25T05:41:10.646Z,21.22
2022-08-25T05:43:36.949Z,21.26
2022-08-25T05:46:03.379Z,21.38
2022-08-25T05:48:30.771Z,21.18
2022-08-25T05:50:57.215Z,21.21
2022-08-25T05:53:23.541Z,21.34
2022-08-25T05:55:49.837Z,21.37
2022-08-25T05:58:16.196Z,21.55
2022-08-25T06:00:42.992Z,21.60
2022-08-25T06:03:09.360Z,21.70
2022-08-25T06:05:35.702Z,21.78
2022-08-25T06:08:02.058Z,21.77
2022-08-25T06:10:28.435Z,21.81
2022-08-25T06:12:54.732Z,21.87
2022-08-25T06:15:23.082Z,21.95
2022-08-25T06:17:49.388Z,22.04
2022-08-25T06:20:15.877Z,21.80
2022-08-25T06:22:42.177Z,21.88
2022-08-25T06:25:09.583Z,21.95
2022-08-25T06:27:35.889Z,22.02
2022-08-25T06:30:08.030Z,22.00
2022-08-25T06:32:35.810Z,22.18
2022-08-25T06:35:02.197Z,22.24
2022-08-25T06:37:28.510Z,22.16
2022-08-25T06:39:55.630Z,22.02
2022-08-25T06:42:21.966Z,22.41
2022-08-25T06:44:48.269Z,22.68
2022-08-25T06:47:15.833Z,22.85
2022-08-25T06:49:42.444Z,23.08
2022-08-25T06:52:08.937Z,23.14
2022-08-25T06:54:35.241Z,23.31
2022-08-25T06:57:01.562Z,23.41
2022-08-25T06:59:32.105Z,23.54
2022-08-25T07:01:59.415Z,22.89
2022-08-25T07:04:26.069Z,23.28
2022-08-25T07:06:56.027Z,23.19
2022-08-25T07:09:22.338Z,23.49
2022-08-25T07:11:48.665Z,23.71
2022-08-25T07:14:16.070Z,23.66
2022-08-25T07:16:47.214Z,23.56
2022-08-25T07:19:15.912Z,23.59
2022-08-25T07:21:42.401Z,24.14
2022-08-25T07:24:11.691Z,24.27
2022-08-25T07:26:38.969Z,24.16
2022-08-25T07:29:05.552Z,24.32
2022-08-25T07:31:31.996Z,23.69
2022-08-25T07:34:16.815Z,23.73
2022-08-25T07:36:43.363Z,24.29
2022-08-25T07:39:09.671Z,24.58
2022-08-25T07:41:36.013Z,24.25
2022-08-25T07:44:02.312Z,23.68
2022-08-25T07:46:28.643Z,24.30
2022-08-25T07:48:55.024Z,25.00
2022-08-25T07:51:21.387Z,24.60
2022-08-25T07:53:48.836Z,24.57
2022-08-25T07:56:15.185Z,24.03
2022-08-25T07:58:42.261Z,24.30
2022-08-25T08:01:08.683Z,24.47
2022-08-25T08:03:50.074Z,24.73
2022-08-25T08:09:07.647Z,25.14
2022-08-25T08:11:34.455Z,25.50
2022-08-25T08:14:00.701Z,25.31
2022-08-25T08:16:27.053Z,25.60
2022-08-25T08:18:53.413Z,25.93
2022-08-25T08:21:20.143Z,25.31
2022-08-25T08:23:47.169Z,25.46
2022-08-25T08:26:13.520Z,25.44
2022-08-25T08:28:39.841Z,25.46
2022-08-25T08:31:06.627Z,25.90
2022-08-25T08:33:40.734Z,25.76
2022-08-25T08:36:07.363Z,26.17
2022-08-25T08:38:33.851Z,26.07
2022-08-25T08:41:21.848Z,26.19
2022-08-25T08:43:50.048Z,25.98
2022-08-25T08:46:17.009Z,26.23
2022-08-25T08:48:43.384Z,26.46
2022-08-25T08:51:10.013Z,26.23
2022-08-25T08:53:36.376Z,26.37
2022-08-25T08:56:02.705Z,26.66
2022-08-25T08:58:29.028Z,26.66
2022-08-25T09:00:55.825Z,26.90
2022-08-25T09:03:24.546Z,27.16
2022-08-25T09:05:51.383Z,27.16
2022-08-25T09:08:20.394Z,27.46
2022-08-25T09:10:47.059Z,27.47
2022-08-25T09:13:15.440Z,26.97
2022-08-25T09:16:01.374Z,27.20
2022-08-25T09:18:27.756Z,27.57
2022-08-25T09:20:54.071Z,27.45
2022-08-25T09:23:20.772Z,27.40
2022-08-25T09:25:52.739Z,27.27
2022-08-25T09:28:20.727Z,27.42
2022-08-25T09:30:47.230Z,27.32
2022-08-25T09:33:13.635Z,27.55
2022-08-25T09:35:47.403Z,27.70
2022-08-25T09:38:16.242Z,27.82
2022-08-25T09:40:42.634Z,27.96
2022-08-25T09:43:08.937Z,28.21
2022-08-25T09:45:35.309Z,28.54
2022-08-25T09:48:02.638Z,28.97
2022-08-25T09:50:29.036Z,28.74
2022-08-25T09:52:55.359Z,28.86
2022-08-25T09:55:21.698Z,28.43
2022-08-25T09:57:53.049Z,28.56
2022-08-25T10:00:19.605Z,28.90
2022-08-25T10:02:45.928Z,28.91
2022-08-25T10:05:12.275Z,28.49
2022-08-25T10:07:38.644Z,28.38
2022-08-25T10:10:07.558Z,28.64
2022-08-25T10:12:36.300Z,28.07
2022-08-25T10:15:09.181Z,27.86
2022-08-25T10:17:35.655Z,28.33
2022-08-25T10:20:01.972Z,28.27
2022-08-25T10:22:34.284Z,28.34
2022-08-25T10:25:00.580Z,28.30
2022-08-25T10:27:30.997Z,28.28
2022-08-25T10:29:57.304Z,28.71
2022-08-25T10:32:27.919Z,28.46
2022-08-25T10:34:54.532Z,28.31
2022-08-25T10:37:20.874Z,28.31
2022-08-25T10:39:54.904Z,28.19
2022-08-25T10:42:25.860Z,28.18
2022-08-25T10:45:14.812Z,27.90
2022-08-25T10:47:44.554Z,28.66
2022-08-25T10:50:10.913Z,28.76
2022-08-25T10:52:38.145Z,29.33
2022-08-25T10:55:04.883Z,29.17
2022-08-25T10:57:31.160Z,29.46
2022-08-25T10:59:57.507Z,29.38
2022-08-25T11:02:27.923Z,29.28
2022-08-25T11:04:54.783Z,29.35
2022-08-25T11:07:21.209Z,29.41
2022-08-25T11:09:49.241Z,29.25
2022-08-25T11:12:15.727Z,28.99
2022-08-25T11:14:42.981Z,28.65
2022-08-25T11:17:09.390Z,28.81
2022-08-25T11:19:35.724Z,28.97
2022-08-25T11:22:02.099Z,28.97
2022-08-25T11:24:28.395Z,29.15
2022-08-25T11:26:54.712Z,29.28
2022-08-25T11:29:21.795Z,29.32
2022-08-25T11:31:52.755Z,29.41
2022-08-25T11:34:19.756Z,29.24
2022-08-25T11:36:46.488Z,28.81
2022-08-25T11:39:12.748Z,29.05
2022-08-25T11:41:40.617Z,29.25
2022-08-25T11:44:06.944Z,29.38
2022-08-25T11:46:33.289Z,29.50
2022-08-25T11:48:59.640Z,29.37
2022-08-25T11:51:26.250Z,29.82
2022-08-25T11:53:57.173Z,29.73
2022-08-25T11:56:23.536Z,29.63
2022-08-25T11:58:50.173Z,29.41
2022-08-25T12:01:16.452Z,29.55
2022-08-25T12:03:43.043Z,29.50
2022-08-25T12:06:12.930Z,29.52
2022-08-25T12:08:39.540Z,29.65
2022-08-25T12:11:11.222Z,29.39
2022-08-25T12:13:38.340Z,29.68
2022-08-25T12:16:04.743Z,29.83
2022-08-25T12:18:31.100Z,29.71
2022-08-25T12:20:57.417Z,29.91
2022-08-25T12:23:23.734Z,29.98
2022-08-25T12:25:51.089Z,29.98
2022-08-25T12:28:17.463Z,30.05
2022-08-25T12:30:45.891Z,30.08
2022-08-25T12:33:14.119Z,30.31
2022-08-25T12:35:41.140Z,30.07
2022-08-25T12:38:08.883Z,30.00
2022-08-25T12:40:35.507Z,29.82
2022-08-25T12:43:02.104Z,30.15
2022-08-25T12:45:28.439Z,30.23
2022-08-25T12:47:57.429Z,30.41
2022-08-25T12:50:24.335Z,30.33
2022-08-25T12:52:51.033Z,30.29
2022-08-25T12:55:17.338Z,30.48
2022-08-25T12:57:43.676Z,30.33
2022-08-25T13:00:12.775Z,30.51
2022-08-25T13:02:39.773Z,30.57
2022-08-25T13:05:16.045Z,30.54
2022-08-25T13:07:42.460Z,30.89
2022-08-25T13:10:08.763Z,30.38
2022-08-25T13:12:35.070Z,30.70
2022-08-25T13:15:01.457Z,30.81
2022-08-25T13:17:28.203Z,30.73
2022-08-25T13:19:55.387Z,30.44
2022-08-25T13:22:22.055Z,30.22
2022-08-25T13:24:52.122Z,30.53
2022-08-25T13:27:22.685Z,30.30
2022-08-25T13:29:49.347Z,30.37
2022-08-25T13:32:17.599Z,30.74
2022-08-25T13:34:44.056Z,30.69
2022-08-25T13:37:31.187Z,30.74
2022-08-25T13:39:58.799Z,30.58
2022-08-25T13:42:28.859Z,30.76
2022-08-25T13:44:55.846Z,30.87
2022-08-25T13:47:23.148Z,31.20
2022-08-25T13:49:50.068Z,30.79
2022-08-25T13:52:18.508Z,30.37
2022-08-25T13:54:45.012Z,30.45
2022-08-25T13:57:12.080Z,30.46
2022-08-25T13:59:40.099Z,30.60
2022-08-25T14:02:06.821Z,30.28
2022-08-25T14:04:33.947Z,30.45
2022-08-25T14:07:00.260Z,30.50
2022-08-25T14:09:28.202Z,30.58
2022-08-25T14:11:54.819Z,30.90
2022-08-25T14:14:22.067Z,30.88
2022-08-25T14:16:49.431Z,30.96
2022-08-25T14:19:19.808Z,30.81
2022-08-25T14:21:46.520Z,30.88
2022-08-25T14:24:16.045Z,30.88
2022-08-25T14:26:54.394Z,31.04
2022-08-25T14:29:22.026Z,31.19
2022-08-25T14:31:48.426Z,30.83
2022-08-25T14:34:15.160Z,30.73
2022-08-25T14:36:42.566Z,30.95
2022-08-25T14:39:11.171Z,30.81
2022-08-25T14:41:37.473Z,30.65
2022-08-25T14:44:05.059Z,30.41
2022-08-25T14:46:31.312Z,30.57
2022-08-25T14:48:57.700Z,30.60
2022-08-25T14:51:24.086Z,30.56
2022-08-25T14:53:51.521Z,30.44
2022-08-25T14:56:17.755Z,30.39
2022-08-25T14:58:51.083Z,30.08
2022-08-25T15:01:28.450Z,30.19
2022-08-25T15:03:56.011Z,29.86
2022-08-25T15:06:22.353Z,30.03
2022-08-25T15:09:07.273Z,30.03
2022-08-25T15:11:34.210Z,29.91
2022-08-25T15:14:01.629Z,29.53
2022-08-25T15:16:33.963Z,29.83
2022-08-25T15:19:01.657Z,29.91
2022-08-25T15:21:32.860Z,29.68
2022-08-25T15:24:00.344Z,29.62
2022-08-25T15:26:26.648Z,29.87
2022-08-25T15:28:52.993Z,29.97
2022-08-25T15:31:20.045Z,29.93
2022-08-25T15:33:46.619Z,29.99
2022-08-25T15:36:15.215Z,30.26
2022-08-25T15:38:41.758Z,30.03
2022-08-25T15:41:08.347Z,30.03
2022-08-25T15:43:36.747Z,29.83
2022-08-25T15:46:03.079Z,29.66
2022-08-25T15:48:29.635Z,29.20
2022-08-25T15:50:56.723Z,29.48
2022-08-25T15:53:23.019Z,29.51
2022-08-25T15:55:52.375Z,29.52
2022-08-25T15:58:20.475Z,29.68
2022-08-25T16:00:56.259Z,29.60
2022-08-25T16:03:23.082Z,29.21
2022-08-25T16:05:50.358Z,29.11
2022-08-25T16:08:19.379Z,29.04
2022-08-25T16:10:46.274Z,29.15
2022-08-25T16:13:12.586Z,29.08
2022-08-25T16:15:38.893Z,29.33
2022-08-25T16:18:05.259Z,29.30
2022-08-25T16:20:31.675Z,29.35
2022-08-25T16:23:00.586Z,29.04
2022-08-25T16:25:26.906Z,29.17
2022-08-25T16:27:53.131Z,29.19
2022-08-25T16:30:19.427Z,29.17
2022-08-25T16:32:46.541Z,29.26
2022-08-25T16:35:13.191Z,29.22
2022-08-25T16:37:42.850Z,28.96
2022-08-25T16:40:10.224Z,28.55
2022-08-25T16:42:37.002Z,28.86
2022-08-25T16:45:05.165Z,28.85
2022-08-25T16:47:34.379Z,28.73
2022-08-25T16:50:00.681Z,28.98
2022-08-25T16:52:46.328Z,28.92
2022-08-25T16:55:12.775Z,28.80
2022-08-25T16:57:39.071Z,28.49
2022-08-25T17:00:05.557Z,28.65
2022-08-25T17:02:31.873Z,28.73
2022-08-25T17:04:59.193Z,28.44
2022-08-25T17:07:26.171Z,28.41
2022-08-25T17:09:53.084Z,28.10
2022-08-25T17:12:20.315Z,28.14
2022-08-25T17:14:47.344Z,28.20
2022-08-25T17:17:13.830Z,28.16
2022-08-25T17:19:45.395Z,27.96
2022-08-25T17:22:15.552Z,28.23
2022-08-25T17:24:42.148Z,28.13
2022-08-25T17:27:08.472Z,28.03
2022-08-25T17:29:34.919Z,28.25
2022-08-25T17:32:01.238Z,27.95
2022-08-25T17:34:27.906Z,27.99
2022-08-25T17:36:54.771Z,27.98
2022-08-25T17:39:22.327Z,28.14
2022-08-25T17:41:48.867Z,28.15
2022-08-25T17:44:16.202Z,27.97
2022-08-25T17:46:47.323Z,27.98
2022-08-25T17:49:14.907Z,28.08
2022-08-25T17:51:41.742Z,28.17
2022-08-25T17:54:08.061Z,28.11
2022-08-25T17:56:34.481Z,27.96
2022-08-25T17:59:01.832Z,27.96
2022-08-25T18:01:28.197Z,27.83
2022-08-25T18:03:54.545Z,27.46
2022-08-25T18:06:22.328Z,27.59
2022-08-25T18:08:52.375Z,27.36
2022-08-25T18:11:20.119Z,27.23
2022-08-25T18:13:46.447Z,27.17
2022-08-25T18:16:13.207Z,27.00
2022-08-25T18:18:39.436Z,27.00
2022-08-25T18:21:09.117Z,26.70
2022-08-25T18:23:35.725Z,26.56
2022-08-25T18:26:02.511Z,26.79
2022-08-25T18:28:29.144Z,27.03
2022-08-25T18:30:55.500Z,27.16
2022-08-25T18:33:22.637Z,27.06
2022-08-25T18:35:48.930Z,27.12
2022-08-25T18:38:33.982Z,27.19
2022-08-25T18:41:00.761Z,27.26
2022-08-25T18:43:28.112Z,27.24
2022-08-25T18:45:59.372Z,27.19
2022-08-25T18:48:26.682Z,27.22
2022-08-25T18:50:56.699Z,27.08
2022-08-25T18:53:30.538Z,27.08
2022-08-25T18:56:03.517Z,26.82
2022-08-25T18:58:29.817Z,26.93
2022-08-25T19:00:56.377Z,26.91
2022-08-25T19:03:23.443Z,26.95
2022-08-25T19:05:52.820Z,26.94
2022-08-25T19:08:23.961Z,26.88
2022-08-25T19:10:50.291Z,26.87
2022-08-25T19:13:16.731Z,26.84
2022-08-25T19:15:48.883Z,26.75
2022-08-25T19:18:17.373Z,26.77
2022-08-25T19:20:44.604Z,26.78
2022-08-25T19:23:11.026Z,26.76
2022-08-25T19:25:41.665Z,26.70
2022-08-25T19:28:08.373Z,26.64
2022-08-25T19:30:38.324Z,26.61
2022-08-25T19:33:16.117Z,26.49
2022-08-25T19:36:02.396Z,26.46
2022-08-25T19:38:33.411Z,26.41
2022-08-25T19:41:00.703Z,26.42
2022-08-25T19:43:27.211Z,26.41
2022-08-25T19:45:53.524Z,26.27
2022-08-25T19:48:19.891Z,26.33
2022-08-25T19:50:47.795Z,26.35
2022-08-25T19:53:22.233Z,26.34
2022-08-25T19:55:48.548Z,26.30
2022-08-25T19:58:15.268Z,26.23
2022-08-25T20:00:46.175Z,26.23
2022-08-25T20:03:14.610Z,26.21
2022-08-25T20:05:41.587Z,26.12
2022-08-25T20:08:07.824Z,26.10
2022-08-25T20:10:39.432Z,26.03
2022-08-25T20:13:08.480Z,25.98
2022-08-25T20:15:39.127Z,25.98
2022-08-25T20:18:05.756Z,25.96
2022-08-25T20:20:34.653Z,25.93
2022-08-25T20:23:20.500Z,25.90
2022-08-25T20:25:46.814Z,25.88
2022-08-25T20:28:13.115Z,25.83
2022-08-25T20:30:45.493Z,25.82
2022-08-25T20:33:11.824Z,25.78
2022-08-25T20:35:38.461Z,25.74
2022-08-25T20:38:05.299Z,25.61
2022-08-25T20:40:32.375Z,25.63
2022-08-25T20:42:58.785Z,25.61
2022-08-25T20:45:25.387Z,25.40
2022-08-25T20:47:51.679Z,25.44
2022-08-25T20:50:18.178Z,25.47
2022-08-25T20:52:44.486Z,25.27
2022-08-25T20:55:11.102Z,25.34
2022-08-25T20:57:38.479Z,25.38
2022-08-25T21:00:04.701Z,25.34
2022-08-25T21:02:31.064Z,25.31
2022-08-25T21:04:57.679Z,24.72
2022-08-25T21:07:24.141Z,24.91
2022-08-25T21:09:50.495Z,25.02
2022-08-25T21:12:18.268Z,25.08
2022-08-25T21:14:44.615Z,25.10
2022-08-25T21:17:11.265Z,25.10
2022-08-25T21:19:39.057Z,25.10
2022-08-25T21:22:06.262Z,25.11
2022-08-25T21:24:32.580Z,25.07
2022-08-25T21:26:59.775Z,25.02
2022-08-25T21:29:28.414Z,25.01
2022-08-25T21:31:55.015Z,24.96
2022-08-25T21:34:21.253Z,24.78
2022-08-25T21:36:48.728Z,24.54
2022-08-25T21:39:15.021Z,24.70
2022-08-25T21:41:42.692Z,24.69
2022-08-25T21:44:09.280Z,24.65
2022-08-25T21:46:35.693Z,24.67
2022-08-25T21:49:05.967Z,24.69
2022-08-25T21:51:32.902Z,24.67
2022-08-25T21:54:08.993Z,24.64
2022-08-25T21:56:35.317Z,24.56
2022-08-25T21:59:02.248Z,24.56
2022-08-25T22:01:28.838Z,24.56
2022-08-25T22:03:55.493Z,24.57
2022-08-25T22:06:23.080Z,24.51
2022-08-25T22:08:49.921Z,24.48
2022-08-25T22:11:16.333Z,24.34
2022-08-25T22:13:44.080Z,24.30
2022-08-25T22:16:11.889Z,24.30
2022-08-25T22:18:38.722Z,24.36
2022-08-25T22:21:09.620Z,24.35
2022-08-25T22:23:44.149Z,24.20
2022-08-25T22:26:11.348Z,24.31
2022-08-25T22:28:37.658Z,24.30
2022-08-25T22:31:04.202Z,24.31
2022-08-25T22:33:31.243Z,24.33
2022-08-25T22:35:59.758Z,24.32
2022-08-25T22:38:26.470Z,24.25
2022-08-25T22:40:52.779Z,24.04
2022-08-25T22:43:19.104Z,24.12
2022-08-25T22:45:45.486Z,24.07
2022-08-25T22:48:11.837Z,24.06
2022-08-25T22:50:38.132Z,24.08
2022-08-25T22:53:04.500Z,24.06
2022-08-25T22:55:30.893Z,24.08
2022-08-25T22:57:57.231Z,24.06
2022-08-25T23:00:23.532Z,24.01
2022-08-25T23:02:53.192Z,23.92
2022-08-25T23:05:19.627Z,23.77
2022-08-25T23:07:45.933Z,23.74
2022-08-25T23:10:12.737Z,23.70
2022-08-25T23:12:39.479Z,23.55
2022-08-25T23:15:10.105Z,23.63
2022-08-25T23:17:37.294Z,23.71
2022-08-25T23:20:23.638Z,23.72
2022-08-25T23:22:50.065Z,23.65
2022-08-25T23:25:19.845Z,23.69
2022-08-25T23:27:46.428Z,23.71
2022-08-25T23:30:13.002Z,23.70
2022-08-25T23:32:39.312Z,23.69
2022-08-25T23:35:05.922Z,23.70
2022-08-25T23:37:32.219Z,23.68
2022-08-25T23:39:58.723Z,23.72
2022-08-25T23:42:25.296Z,23.68
2022-08-25T23:44:51.604Z,23.57
2022-08-25T23:47:18.055Z,23.56
2022-08-25T23:49:44.355Z,23.59
2022-08-25T23:52:10.672Z,23.52
2022-08-25T23:54:36.977Z,23.50
2022-08-25T23:57:03.283Z,23.42
2022-08-25T23:59:33.155Z,23.42
